Time;durP1;ratioP1;P1;durP2;ratioP2;P2;SDS_P1;SDS_P2;PMS_P1;PMS_P2;Temp;Humidity;BMP_temperature;BMP_pressure;BME280_temperature;BME280_humidity;BME280_pressure;Samples;Min_cycle;Max_cycle;Signal;HPM_P1;HPM_P2
2023/11/01 00:01:48;;;;;;;23.08;3.00;;;16.00;99.90;;;;;;7386913;19;20006;-79
2023/11/01 00:04:20;;;;;;;29.58;3.13;;;15.80;99.90;;;;;;7404164;19;20014;-79
2023/11/01 00:06:50;;;;;;;15.38;3.00;;;16.00;99.90;;;;;;7412059;19;20006;-80
2023/11/01 00:09:19;;;;;;;26.00;3.47;;;16.00;99.90;;;;;;7387983;19;20003;-81
2023/11/01 00:11:49;;;;;;;16.88;2.83;;;16.00;99.90;;;;;;7389122;19;20003;-80
2023/11/01 00:14:18;;;;;;;22.97;3.30;;;16.10;99.90;;;;;;7389022;19;20013;-81
2023/11/01 00:16:47;;;;;;;25.02;3.40;;;15.90;99.90;;;;;;7386293;19;20393;-81
2023/11/01 00:19:51;;;;;;;22.40;3.53;;;15.60;99.90;;;;;;7407407;19;20003;-81
2023/11/01 00:22:22;;;;;;;65.50;22.58;;;15.60;99.90;;;;;;7286691;19;2004394;-81
2023/11/01 00:24:51;;;;;;;;;;;15.90;99.90;;;;;;7409635;19;20011;-80
2023/11/01 00:30:44;;;;;;;19.52;3.05;;;16.10;99.90;;;;;;7387122;19;20018;-83
2023/11/01 00:33:13;;;;;;;27.73;3.67;;;15.90;99.90;;;;;;7388099;19;20507;-82
2023/11/01 00:35:44;;;;;;;24.05;3.33;;;16.00;99.90;;;;;;7390121;19;20035;-83
2023/11/01 00:38:20;;;;;;;32.28;3.90;;;15.70;99.90;;;;;;7389083;19;20014;-82
2023/11/01 00:40:49;;;;;;;22.60;3.13;;;15.80;99.90;;;;;;7388316;19;20031;-83
2023/11/01 00:47:08;;;;;;;24.58;3.20;;;15.90;99.90;;;;;;7388255;19;20010;-84
2023/11/01 00:52:50;;;;;;;35.30;3.83;;;16.00;99.90;;;;;;7402779;19;20006;-82
2023/11/01 00:55:21;;;;;;;16.90;2.50;;;15.90;99.80;;;;;;7409182;19;20007;-81
2023/11/01 00:57:50;;;;;;;;;;;16.10;99.70;;;;;;7430391;19;20017;-82
2023/11/01 01:00:19;;;;;;;16.50;3.08;;;16.20;99.60;;;;;;7407897;19;19927;-81
2023/11/01 01:02:48;;;;;;;27.38;3.70;;;16.20;99.50;;;;;;7407545;19;19999;-81
2023/11/01 01:05:17;;;;;;;30.65;3.72;;;16.30;99.50;;;;;;7389426;19;20002;-81
2023/11/01 01:07:46;;;;;;;23.50;3.85;;;16.00;99.90;;;;;;7388912;19;20031;-82
2023/11/01 01:10:15;;;;;;;28.13;3.25;;;15.90;99.90;;;;;;7411732;19;20019;-83
2023/11/01 01:12:47;;;;;;;14.00;2.45;;;16.10;99.80;;;;;;7387386;19;20003;-82
2023/11/01 01:15:16;;;;;;;25.88;3.05;;;16.10;99.60;;;;;;7388178;19;20007;-82
2023/11/01 01:17:45;;;;;;;20.50;3.35;;;16.20;99.50;;;;;;7395929;19;20098;-82
2023/11/01 01:20:14;;;;;;;26.30;3.30;;;16.10;99.50;;;;;;7388308;19;20006;-82
2023/11/01 01:22:43;;;;;;;39.95;3.25;;;15.90;99.70;;;;;;7387556;19;20015;-82
2023/11/01 01:25:11;;;;;;;19.13;3.17;;;15.80;99.90;;;;;;7411333;19;20018;-82
2023/11/01 01:27:41;;;;;;;29.48;3.72;;;15.90;99.90;;;;;;7385198;19;20010;-82
2023/11/01 01:30:14;;;;;;;19.17;3.53;;;15.90;99.90;;;;;;7386325;19;20002;-81
2023/11/01 01:32:42;;;;;;;16.15;2.75;;;15.90;99.90;;;;;;7384751;19;20007;-80
2023/11/01 01:35:12;;;;;;;26.75;4.00;;;16.00;99.90;;;;;;7384576;19;20010;-80
2023/11/01 01:37:41;;;;;;;20.52;3.55;;;16.00;99.90;;;;;;7385097;19;20007;-82
2023/11/01 01:40:11;;;;;;;27.83;3.33;;;16.10;99.80;;;;;;7406331;19;20011;-81
2023/11/01 01:42:42;;;;;;;27.17;3.55;;;16.10;99.70;;;;;;7385355;19;20015;-83
2023/11/01 01:45:17;;;;;;;14.07;2.80;;;16.20;99.60;;;;;;7385531;19;20006;-82
2023/11/01 01:47:46;;;;;;;28.05;3.30;;;16.30;99.90;;;;;;7385714;19;20027;-81
2023/11/01 01:50:15;;;;;;;23.00;3.85;;;16.20;99.60;;;;;;7384191;19;20404;-79
2023/11/01 01:52:44;;;;;;;27.25;3.95;;;16.20;99.50;;;;;;7384531;19;20019;-81
2023/11/01 01:55:13;;;;;;;31.70;3.45;;;16.00;99.60;;;;;;7405561;19;20475;-81
2023/11/01 01:57:42;;;;;;;26.77;3.15;;;15.80;99.90;;;;;;7385202;19;20228;-81
2023/11/01 02:00:13;;;;;;;28.30;3.30;;;16.00;99.90;;;;;;7384174;19;20047;-81
2023/11/01 02:02:45;;;;;;;20.33;2.53;;;16.00;99.90;;;;;;7388926;19;20035;-80
2023/11/01 02:05:14;;;;;;;23.35;3.00;;;16.00;99.90;;;;;;7402502;19;20014;-82
2023/11/01 02:07:43;;;;;;;25.42;3.45;;;16.00;99.90;;;;;;7402864;19;20043;-82
2023/11/01 02:10:14;;;;;;;24.88;3.15;;;16.10;99.80;;;;;;7416724;19;20003;-82
2023/11/01 02:12:43;;;;;;;24.77;3.65;;;16.10;99.70;;;;;;7403207;19;20050;-82
2023/11/01 02:15:12;;;;;;;24.58;3.75;;;16.10;99.70;;;;;;7406135;19;20018;-82
2023/11/01 02:17:41;;;;;;;25.40;3.35;;;15.90;99.90;;;;;;7404951;19;20007;-81
2023/11/01 02:20:13;;;;;;;17.83;2.75;;;16.00;99.80;;;;;;7398582;19;20036;-81
2023/11/01 02:22:42;;;;;;;25.42;3.28;;;15.90;99.90;;;;;;7390731;19;20021;-81
2023/11/01 02:25:14;;;;;;;19.02;3.35;;;15.70;99.90;;;;;;7404945;19;20028;-79
2023/11/01 02:27:43;;;;;;;21.52;3.30;;;15.60;99.90;;;;;;7381415;19;20252;-79
2023/11/01 02:30:16;;;;;;;20.08;3.22;;;15.50;99.90;;;;;;7386717;19;20093;-79
2023/11/01 02:32:47;;;;;;;26.50;3.50;;;15.60;99.90;;;;;;7381091;19;20014;-79
2023/11/01 02:35:16;;;;;;;16.58;3.35;;;15.70;99.90;;;;;;7383717;19;20380;-79
2023/11/01 02:37:45;;;;;;;19.63;3.45;;;15.90;99.90;;;;;;7382197;19;20036;-79
2023/11/01 02:40:17;;;;;;;24.38;3.78;;;15.80;99.90;;;;;;7403723;19;20023;-80
2023/11/01 02:42:47;;;;;;;19.30;3.10;;;15.90;99.90;;;;;;7382547;19;20003;-79
2023/11/01 02:45:16;;;;;;;27.92;3.40;;;15.90;99.90;;;;;;7382225;19;20014;-79
2023/11/01 02:47:46;;;;;;;20.05;3.45;;;15.90;99.90;;;;;;7381647;19;20014;-79
2023/11/01 02:50:17;;;;;;;24.73;3.83;;;16.00;99.80;;;;;;7381587;19;20006;-80
2023/11/01 02:52:46;;;;;;;22.00;2.88;;;16.00;99.90;;;;;;7380685;19;20002;-79
2023/11/01 02:55:18;;;;;;;17.17;2.72;;;16.00;99.70;;;;;;7402488;19;20007;-80
2023/11/01 02:57:47;;;;;;;21.63;3.72;;;15.90;99.90;;;;;;7382030;19;20027;-80
2023/11/01 03:00:20;;;;;;;30.80;3.33;;;16.00;99.80;;;;;;7381984;19;20070;-79
2023/11/01 03:02:53;;;;;;;27.73;3.08;;;16.10;99.70;;;;;;7384119;19;20020;-81
2023/11/01 03:05:24;;;;;;;24.98;3.38;;;16.00;99.50;;;;;;7383642;19;20039;-81
2023/11/01 03:07:53;;;;;;;11.57;2.90;;;16.10;99.60;;;;;;7383504;19;20007;-81
2023/11/01 03:10:25;;;;;;;18.90;3.05;;;16.00;99.60;;;;;;7384631;19;20003;-82
2023/11/01 03:12:54;;;;;;;24.77;2.97;;;16.00;99.60;;;;;;7405904;19;20022;-81
2023/11/01 03:15:23;;;;;;;26.60;3.15;;;16.10;99.60;;;;;;7385826;19;20011;-81
2023/11/01 03:17:51;;;;;;;24.88;2.90;;;16.10;99.50;;;;;;7386099;19;20024;-82
2023/11/01 03:20:20;;;;;;;31.33;3.25;;;16.20;99.50;;;;;;7384241;19;20017;-82
2023/11/01 03:22:49;;;;;;;19.55;3.00;;;16.20;99.40;;;;;;7386713;19;20010;-82
2023/11/01 03:25:18;;;;;;;14.57;2.65;;;16.30;99.30;;;;;;7389379;19;20007;-80
2023/11/01 03:27:49;;;;;;;15.50;3.00;;;16.20;99.20;;;;;;7403287;19;20024;-80
2023/11/01 03:30:19;;;;;;;20.48;2.85;;;16.00;99.30;;;;;;7381966;19;20007;-81
2023/11/01 03:32:48;;;;;;;23.40;2.85;;;16.00;99.30;;;;;;7401306;19;20003;-79
2023/11/01 03:35:17;;;;;;;17.05;3.17;;;16.10;99.30;;;;;;7403989;19;20011;-79
2023/11/01 03:37:45;;;;;;;25.40;3.20;;;16.10;99.20;;;;;;7404194;19;19998;-79
2023/11/01 03:40:14;;;;;;;18.02;3.38;;;16.10;99.20;;;;;;7426429;19;20014;-81
2023/11/01 03:42:43;;;;;;;13.25;2.67;;;16.20;99.10;;;;;;7404605;19;20014;-81
2023/11/01 03:45:14;;;;;;;16.27;2.65;;;16.20;99.10;;;;;;7400660;19;20006;-81
2023/11/01 03:47:43;;;;;;;17.02;2.42;;;16.20;99.00;;;;;;7389603;19;20055;-81
2023/11/01 03:50:13;;;;;;;26.85;2.85;;;16.20;98.90;;;;;;7389615;19;20039;-80
2023/11/01 03:52:39;;;;;;;13.02;2.33;;;16.20;98.90;;;;;;7388589;19;20014;-80
2023/11/01 03:55:11;;;;;;;14.65;2.63;;;16.20;98.90;;;;;;7407811;19;20029;-80
2023/11/01 03:57:40;;;;;;;16.20;2.60;;;16.20;98.90;;;;;;7387683;19;20031;-80
2023/11/01 04:00:10;;;;;;;13.63;2.63;;;16.20;98.80;;;;;;7387155;19;20019;-80
2023/11/01 04:02:42;;;;;;;15.38;2.78;;;16.20;98.80;;;;;;7387608;19;20021;-80
2023/11/01 04:05:11;;;;;;;22.02;3.47;;;16.10;98.80;;;;;;7386555;19;20003;-80
2023/11/01 04:07:39;;;;;;;26.80;2.97;;;16.20;98.80;;;;;;7385599;19;20214;-80
2023/11/01 04:10:09;;;;;;;21.40;2.88;;;16.20;98.80;;;;;;7406622;19;20003;-81
2023/11/01 04:12:41;;;;;;;13.43;2.60;;;16.10;98.70;;;;;;7386331;19;20007;-79
2023/11/01 04:15:12;;;;;;;22.55;2.88;;;16.10;98.80;;;;;;7386488;19;20361;-81
2023/11/01 04:17:44;;;;;;;15.63;2.67;;;16.10;98.80;;;;;;7385592;19;20323;-81
2023/11/01 04:20:13;;;;;;;15.98;2.85;;;16.20;98.80;;;;;;7386941;19;20019;-80
2023/11/01 04:22:42;;;;;;;20.38;3.03;;;16.10;98.70;;;;;;7384868;19;20002;-80
2023/11/01 04:25:12;;;;;;;16.65;2.40;;;16.10;98.70;;;;;;7405753;19;20003;-80
2023/11/01 04:27:42;;;;;;;15.43;2.50;;;16.10;98.70;;;;;;7385865;19;20066;-81
2023/11/01 04:30:12;;;;;;;19.17;2.80;;;16.10;98.60;;;;;;7385453;19;20007;-81
2023/11/01 04:32:44;;;;;;;12.85;2.30;;;16.10;98.60;;;;;;7385591;19;20006;-81
2023/11/01 04:35:15;;;;;;;13.73;3.05;;;16.10;98.60;;;;;;7385791;19;20011;-79
2023/11/01 04:37:45;;;;;;;14.93;2.75;;;16.10;98.50;;;;;;7383967;19;20002;-81
2023/11/01 04:40:15;;;;;;;22.17;2.63;;;16.10;98.50;;;;;;7408085;19;20044;-81
2023/11/01 04:42:45;;;;;;;16.67;2.95;;;16.00;98.50;;;;;;7383367;19;20011;-80
2023/11/01 04:45:14;;;;;;;15.50;2.50;;;16.00;98.50;;;;;;7385736;19;20524;-81
2023/11/01 04:47:46;;;;;;;16.23;2.75;;;15.90;98.50;;;;;;7385669;19;20006;-81
2023/11/01 04:50:16;;;;;;;22.98;3.13;;;15.90;98.50;;;;;;7385415;19;20011;-81
2023/11/01 04:52:46;;;;;;;8.80;2.33;;;15.90;98.60;;;;;;7388794;19;20059;-80
2023/11/01 04:55:15;;;;;;;15.95;2.95;;;15.90;98.60;;;;;;7411174;19;20315;-79
2023/11/01 04:57:44;;;;;;;13.63;2.72;;;15.90;98.50;;;;;;7388715;19;20010;-80
2023/11/01 05:00:16;;;;;;;17.33;3.15;;;15.90;98.50;;;;;;7386000;19;20409;-81
2023/11/01 05:02:47;;;;;;;;;;;15.90;98.50;;;;;;7386417;19;20262;-81
2023/11/01 05:05:17;;;;;;;22.70;2.90;;;15.90;98.50;;;;;;7387366;19;19927;-80
2023/11/01 05:07:45;;;;;;;13.13;2.72;;;15.90;98.50;;;;;;7388443;19;20223;-80
2023/11/01 05:10:15;;;;;;;21.48;3.60;;;15.80;98.40;;;;;;7409974;19;20409;-81
2023/11/01 05:12:44;;;;;;;14.32;2.80;;;15.80;98.50;;;;;;7384458;19;20003;-80
2023/11/01 05:15:13;;;;;;;24.00;3.20;;;15.80;98.50;;;;;;7384172;19;20015;-80
2023/11/01 05:17:42;;;;;;;16.48;2.78;;;15.80;98.50;;;;;;7388819;19;20006;-81
2023/11/01 05:20:14;;;;;;;14.50;2.83;;;15.70;98.50;;;;;;7385424;19;20027;-81
2023/11/01 05:22:43;;;;;;;14.55;2.53;;;15.70;98.60;;;;;;7384906;19;20266;-82
2023/11/01 05:25:15;;;;;;;22.75;2.80;;;15.60;98.60;;;;;;7406590;19;20020;-83
2023/11/01 05:27:45;;;;;;;15.60;2.70;;;15.50;98.50;;;;;;7386703;19;20011;-81
2023/11/01 05:30:18;;;;;;;15.73;3.15;;;15.60;98.70;;;;;;7386847;19;20009;-81
2023/11/01 05:32:48;;;;;;;11.10;2.72;;;15.60;98.70;;;;;;7386576;19;20010;-82
2023/11/01 05:35:20;;;;;;;18.48;2.92;;;15.60;98.70;;;;;;7385919;19;20481;-81
2023/11/01 05:37:48;;;;;;;12.18;2.55;;;15.60;98.60;;;;;;7384582;19;20002;-82
2023/11/01 05:40:17;;;;;;;14.38;2.90;;;15.60;98.60;;;;;;7400995;19;20015;-80
2023/11/01 05:42:48;;;;;;;16.08;2.63;;;15.60;98.60;;;;;;7405266;19;20015;-81
2023/11/01 05:45:20;;;;;;;22.30;2.87;;;15.60;98.50;;;;;;7385216;19;20010;-81
2023/11/01 05:47:51;;;;;;;14.82;2.90;;;15.60;98.50;;;;;;7387129;19;20299;-81
2023/11/01 05:50:25;;;;;;;18.02;2.72;;;15.50;98.40;;;;;;7387402;19;20050;-82
2023/11/01 05:52:55;;;;;;;15.75;3.05;;;15.60;98.50;;;;;;7389149;19;20003;-81
2023/11/01 05:55:25;;;;;;;12.38;2.85;;;15.60;98.50;;;;;;7385447;19;20075;-81
2023/11/01 05:57:54;;;;;;;13.32;2.58;;;15.60;98.40;;;;;;7405742;19;20022;-81
2023/11/01 06:00:23;;;;;;;15.90;2.38;;;15.60;98.40;;;;;;7385995;19;20035;-81
2023/11/01 06:02:52;;;;;;;15.20;2.75;;;15.60;98.40;;;;;;7388432;19;20024;-81
2023/11/01 06:05:23;;;;;;;9.43;2.38;;;15.60;98.40;;;;;;7389217;19;20006;-81
2023/11/01 06:07:52;;;;;;;;;;;15.60;98.30;;;;;;7387222;19;20006;-81
2023/11/01 06:10:21;;;;;;;18.50;3.03;;;15.60;98.30;;;;;;7386248;19;20263;-80
2023/11/01 06:12:50;;;;;;;13.40;2.53;;;15.60;98.20;;;;;;7406989;19;20015;-80
2023/11/01 06:15:18;;;;;;;13.57;2.50;;;15.60;98.20;;;;;;7386666;19;20015;-79
2023/11/01 06:17:47;;;;;;;12.27;2.85;;;15.60;98.30;;;;;;7385858;19;20002;-80
2023/11/01 06:20:16;;;;;;;12.63;2.95;;;15.60;98.30;;;;;;7385686;19;20011;-80
2023/11/01 06:22:47;;;;;;;12.40;2.70;;;15.60;98.20;;;;;;7384328;19;20038;-80
2023/11/01 06:25:20;;;;;;;14.60;3.08;;;15.60;98.20;;;;;;7405316;19;20014;-79
2023/11/01 06:27:48;;;;;;;24.05;3.05;;;15.60;98.10;;;;;;7382565;19;20018;-80
2023/11/01 06:30:17;;;;;;;9.93;2.30;;;15.60;98.10;;;;;;7382564;19;20021;-80
2023/11/01 06:32:46;;;;;;;12.75;2.50;;;15.60;98.20;;;;;;7383165;19;20007;-80
2023/11/01 06:35:16;;;;;;;20.63;2.58;;;15.50;98.10;;;;;;7382353;19;20716;-79
2023/11/01 06:37:48;;;;;;;13.88;2.17;;;15.50;98.10;;;;;;7383627;19;20007;-79
2023/11/01 06:40:17;;;;;;;8.18;2.20;;;15.50;98.10;;;;;;7400059;19;20062;-80
2023/11/01 06:42:46;;;;;;;13.02;2.33;;;15.60;98.10;;;;;;7403273;19;20042;-79
2023/11/01 06:45:15;;;;;;;11.60;2.53;;;15.60;98.00;;;;;;7382350;19;20015;-80
2023/11/01 06:47:44;;;;;;;15.50;2.67;;;15.60;98.00;;;;;;7386744;19;20018;-80
2023/11/01 06:50:12;;;;;;;14.05;2.58;;;15.50;97.90;;;;;;7384529;19;20010;-79
2023/11/01 06:52:44;;;;;;;8.35;1.85;;;15.50;97.90;;;;;;7383319;19;20056;-81
2023/11/01 06:55:16;;;;;;;15.30;2.35;;;15.50;98.00;;;;;;7403218;19;20009;-81
2023/11/01 06:57:45;;;;;;;15.00;2.88;;;15.50;98.00;;;;;;7384959;19;20358;-82
2023/11/01 07:00:15;;;;;;;10.80;2.25;;;15.40;97.90;;;;;;7385968;19;20007;-82
2023/11/01 07:02:44;;;;;;;10.30;2.10;;;15.40;97.90;;;;;;7384981;19;19999;-81
2023/11/01 07:05:13;;;;;;;11.00;2.15;;;15.50;97.90;;;;;;7381852;19;20477;-81
2023/11/01 07:07:42;;;;;;;11.82;2.40;;;15.50;97.90;;;;;;7385154;19;20011;-81
2023/11/01 07:10:11;;;;;;;15.13;2.63;;;15.50;97.80;;;;;;7404385;19;20011;-80
2023/11/01 07:12:42;;;;;;;17.50;2.42;;;15.50;97.70;;;;;;7384319;19;20038;-81
2023/11/01 07:15:12;;;;;;;11.20;2.30;;;15.50;97.80;;;;;;7383364;19;20003;-81
2023/11/01 07:17:41;;;;;;;11.85;2.42;;;15.50;97.70;;;;;;7382127;19;20003;-81
2023/11/01 07:20:11;;;;;;;11.18;2.03;;;15.50;97.60;;;;;;7385241;19;20007;-81
2023/11/01 07:22:43;;;;;;;8.63;1.85;;;15.50;97.60;;;;;;7386856;19;20046;-81
2023/11/01 07:25:11;;;;;;;13.57;1.92;;;15.50;97.60;;;;;;7409246;19;19999;-80
2023/11/01 07:27:43;;;;;;;14.25;1.92;;;15.50;97.60;;;;;;7389172;19;20003;-80
2023/11/01 07:30:12;;;;;;;13.82;2.30;;;15.50;97.60;;;;;;7388683;19;20025;-81
2023/11/01 07:32:44;;;;;;;11.57;1.83;;;15.50;97.60;;;;;;7388909;19;20017;-81
2023/11/01 07:35:13;;;;;;;12.02;2.28;;;15.50;97.50;;;;;;7388845;19;20371;-82
2023/11/01 07:37:42;;;;;;;6.93;2.05;;;15.60;97.50;;;;;;7388927;19;20007;-81
2023/11/01 07:40:11;;;;;;;18.75;3.03;;;15.60;97.40;;;;;;7413418;19;20011;-82
2023/11/01 07:42:45;;;;;;;10.43;2.03;;;15.60;97.50;;;;;;7391001;19;20006;-82
2023/11/01 07:45:14;;;;;;;11.73;2.63;;;15.60;97.50;;;;;;7391951;19;20035;-82
2023/11/01 07:47:42;;;;;;;14.10;2.60;;;15.60;97.40;;;;;;7388838;19;20002;-81
2023/11/01 07:50:14;;;;;;;16.52;2.65;;;15.70;97.50;;;;;;7391005;19;20003;-82
2023/11/01 07:52:46;;;;;;;16.13;2.45;;;15.70;97.40;;;;;;7391614;19;20015;-82
2023/11/01 07:55:14;;;;;;;;;;;15.70;97.30;;;;;;7414989;19;20039;-82
2023/11/01 07:57:45;;;;;;;15.65;3.83;;;15.70;97.20;;;;;;7392266;19;19910;-82
2023/11/01 08:00:15;;;;;;;10.85;2.55;;;15.70;97.10;;;;;;7389584;19;20007;-81
2023/11/01 08:02:44;;;;;;;14.27;2.17;;;15.70;97.10;;;;;;7385710;19;20053;-81
2023/11/01 08:05:13;;;;;;;18.73;2.33;;;15.80;97.30;;;;;;7386647;19;20017;-81
2023/11/01 08:07:41;;;;;;;10.55;2.40;;;15.80;97.20;;;;;;7385423;19;20007;-81
2023/11/01 08:10:11;;;;;;;15.20;2.45;;;15.80;97.00;;;;;;7409524;19;20018;-80
2023/11/01 08:12:40;;;;;;;8.90;2.30;;;15.80;96.90;;;;;;7386875;19;20027;-82
2023/11/01 08:15:12;;;;;;;6.18;1.70;;;15.80;96.80;;;;;;7388022;19;20064;-81
2023/11/01 08:17:41;;;;;;;11.43;2.25;;;15.90;96.80;;;;;;7387882;19;20024;-82
2023/11/01 08:20:16;;;;;;;16.77;2.10;;;15.90;96.60;;;;;;7387805;19;20020;-83
2023/11/01 08:22:45;;;;;;;14.48;2.28;;;15.90;96.70;;;;;;7385088;19;20009;-82
2023/11/01 08:25:14;;;;;;;14.20;2.30;;;15.90;96.60;;;;;;7406119;19;20031;-83
2023/11/01 08:27:46;;;;;;;8.32;1.75;;;15.90;96.30;;;;;;7385730;19;20002;-82
2023/11/01 08:30:26;;;;;;;11.60;2.17;;;16.00;96.20;;;;;;7387777;19;20040;-83
2023/11/01 08:32:57;;;;;;;12.10;2.40;;;16.00;96.20;;;;;;7387306;19;20259;-82
2023/11/01 08:35:29;;;;;;;14.50;2.25;;;16.00;96.10;;;;;;7388493;19;20019;-82
2023/11/01 08:38:08;;;;;;;11.73;2.17;;;16.00;96.10;;;;;;7392408;19;20003;-83
2023/11/01 08:40:37;;;;;;;9.15;2.10;;;16.10;96.10;;;;;;7391018;19;20024;-83
2023/11/01 08:43:05;;;;;;;8.35;1.55;;;16.10;95.80;;;;;;7408770;19;20010;-81
2023/11/01 08:45:37;;;;;;;6.28;1.75;;;16.10;95.70;;;;;;7386963;19;20002;-81
2023/11/01 08:48:06;;;;;;;15.35;2.30;;;16.10;95.70;;;;;;7389262;19;20035;-81
2023/11/01 08:50:35;;;;;;;12.20;1.90;;;16.10;95.50;;;;;;7391297;19;20042;-81
2023/11/01 08:53:35;;;;;;;10.77;1.35;;;16.10;95.30;;;;;;7396842;19;20015;-82
2023/11/01 08:56:13;;;;;;;5.18;1.50;;;16.00;95.30;;;;;;7403175;19;20013;-83
2023/11/01 08:58:47;;;;;;;6.18;1.63;;;16.10;95.30;;;;;;7398035;19;20011;-83
2023/11/01 09:01:24;;;;;;;8.85;1.45;;;16.10;95.20;;;;;;7416606;19;20014;-83
2023/11/01 09:03:53;;;;;;;8.75;1.88;;;16.10;95.20;;;;;;7388034;19;20011;-82
2023/11/01 09:06:25;;;;;;;11.98;1.88;;;16.10;95.10;;;;;;7387827;19;20014;-83
2023/11/01 09:08:56;;;;;;;9.18;1.42;;;16.10;95.10;;;;;;7388948;19;20009;-82
2023/11/01 09:11:25;;;;;;;;;;;16.10;95.20;;;;;;7389157;19;20015;-83
2023/11/01 09:13:56;;;;;;;6.55;2.00;;;16.20;95.30;;;;;;7387927;19;19910;-82
2023/11/01 09:16:27;;;;;;;9.05;1.70;;;16.20;95.20;;;;;;7385983;19;20215;-81
2023/11/01 09:18:57;;;;;;;;;;;16.20;95.00;;;;;;7410093;19;20014;-82
2023/11/01 09:21:28;;;;;;;10.23;1.98;;;16.20;95.00;;;;;;7387006;19;19922;-83
2023/11/01 09:23:57;;;;;;;12.82;1.77;;;16.20;95.00;;;;;;7387438;19;20035;-82
2023/11/01 09:26:26;;;;;;;6.15;1.77;;;16.20;95.00;;;;;;7385862;19;19999;-82
2023/11/01 09:28:57;;;;;;;13.35;1.90;;;16.20;95.10;;;;;;7387109;19;20291;-82
2023/11/01 09:31:29;;;;;;;11.60;1.73;;;16.20;95.10;;;;;;7386935;19;20373;-82
2023/11/01 09:33:57;;;;;;;;;;;16.20;95.10;;;;;;7409527;19;20011;-82
2023/11/01 09:36:26;;;;;;;5.38;1.40;;;16.20;95.30;;;;;;7387703;19;19907;-82
2023/11/01 09:38:55;;;;;;;7.40;1.73;;;16.10;95.40;;;;;;7387168;19;20011;-81
2023/11/01 09:41:30;;;;;;;7.32;1.65;;;16.10;95.50;;;;;;7386060;19;20006;-82
2023/11/01 09:44:00;;;;;;;10.75;1.77;;;16.10;95.60;;;;;;7387360;19;20060;-81
2023/11/01 09:46:32;;;;;;;6.97;1.80;;;16.10;95.50;;;;;;7387595;19;20011;-81
2023/11/01 09:49:01;;;;;;;14.43;1.85;;;16.20;95.80;;;;;;7407112;19;20007;-82
2023/11/01 09:51:30;;;;;;;8.43;1.90;;;16.00;96.00;;;;;;7386901;19;20039;-82
2023/11/01 09:53:59;;;;;;;7.75;1.90;;;16.00;96.20;;;;;;7383884;19;20022;-78
2023/11/01 09:59:12;;;;;;;10.40;2.72;;;16.10;96.10;;;;;;7381910;19;20169;-82
2023/11/01 10:08:50;;;;;;;6.38;1.42;;;16.20;96.20;;;;;;7258654;19;2004315;-87
2023/11/01 10:11:20;;;;;;;15.48;1.70;;;16.10;96.10;;;;;;7381734;19;20009;-78
2023/11/01 10:13:49;;;;;;;5.45;1.90;;;16.20;96.20;;;;;;7380296;19;20010;-79
2023/11/01 10:16:47;;;;;;;4.68;1.38;;;16.10;96.20;;;;;;7410414;19;20062;-85
2023/11/01 10:19:16;;;;;;;6.22;1.58;;;16.20;96.40;;;;;;7401228;19;20386;-79
2023/11/01 10:21:46;;;;;;;10.50;1.60;;;16.20;96.20;;;;;;7383135;19;20394;-79
2023/11/01 10:24:18;;;;;;;3.75;1.08;;;16.20;96.70;;;;;;7377075;19;20007;-77
2023/11/01 10:26:47;;;;;;;8.60;2.28;;;16.20;96.80;;;;;;7376061;19;20308;-77
2023/11/01 10:29:16;;;;;;;5.88;2.03;;;16.10;96.80;;;;;;7378423;19;20090;-77
2023/11/01 10:31:44;;;;;;;5.68;2.15;;;16.20;96.90;;;;;;7378805;19;20003;-79
2023/11/01 10:34:14;;;;;;;7.43;2.00;;;16.20;97.00;;;;;;7404679;19;19999;-76
2023/11/01 10:36:52;;;;;;;8.23;2.38;;;16.30;97.20;;;;;;7379120;19;20003;-76
2023/11/01 10:39:24;;;;;;;12.48;3.45;;;16.20;97.20;;;;;;7376148;19;20010;-75
2023/11/01 10:41:54;;;;;;;9.45;2.53;;;16.20;97.50;;;;;;7377011;19;20085;-75
2023/11/01 10:44:25;;;;;;;5.25;1.98;;;15.90;97.90;;;;;;7377518;19;20003;-76
2023/11/01 10:46:54;;;;;;;10.77;1.75;;;16.10;98.00;;;;;;7377306;19;20223;-74
2023/11/01 10:49:24;;;;;;;5.88;1.83;;;15.60;98.10;;;;;;7376916;19;20002;-76
2023/11/01 10:52:02;;;;;;;11.32;1.55;;;15.80;98.70;;;;;;7404499;19;20028;-83
2023/11/01 10:54:37;;;;;;;10.07;2.33;;;15.80;98.40;;;;;;7386995;19;20018;-81
2023/11/01 10:57:06;;;;;;;8.43;2.33;;;15.80;98.30;;;;;;7390397;19;20035;-79
2023/11/01 10:59:44;;;;;;;6.65;1.48;;;15.90;98.30;;;;;;7412767;19;20105;-80
2023/11/01 11:02:35;;;;;;;5.80;1.95;;;16.00;98.10;;;;;;7394437;19;20020;-81
2023/11/01 11:05:10;;;;;;;9.38;1.77;;;15.90;97.80;;;;;;7393992;19;20006;-81
2023/11/01 11:07:51;;;;;;;11.02;2.00;;;16.10;97.90;;;;;;7397586;19;20043;-82
2023/11/01 11:32:30;;;;;;;14.10;4.53;;;15.70;98.20;;;;;;7392467;19;20227;-77
2023/11/01 11:35:18;;;;;;;;;;;15.40;98.20;;;;;;7390401;19;20006;-77
2023/11/01 11:37:48;;;;;;;9.48;1.42;;;15.50;98.00;;;;;;7386233;19;19906;-77
2023/11/01 11:41:12;;;;;;;8.20;1.58;;;15.50;98.20;;;;;;7417043;19;20044;-85
2023/11/01 11:44:13;;;;;;;3.08;1.30;;;15.50;98.30;;;;;;7186245;19;2006125;-83
2023/11/01 11:47:08;;;;;;;6.18;1.80;;;15.50;98.40;;;;;;7393870;19;20026;-84
2023/11/01 11:49:39;;;;;;;6.80;1.50;;;15.60;98.30;;;;;;7382344;19;20054;-76
2023/11/01 11:52:13;;;;;;;7.78;1.55;;;15.70;97.90;;;;;;7405526;19;20015;-75
2023/11/01 11:54:42;;;;;;;5.55;1.45;;;15.60;98.00;;;;;;7383327;19;20003;-75
2023/11/01 11:57:16;;;;;;;7.05;1.67;;;15.50;97.70;;;;;;7383467;19;20022;-76
2023/11/01 11:59:45;;;;;;;12.40;1.63;;;15.70;98.20;;;;;;7383498;19;20006;-75
2023/11/01 12:02:15;;;;;;;7.07;1.50;;;16.00;97.90;;;;;;7383268;19;20064;-75
2023/11/01 12:04:47;;;;;;;7.10;1.60;;;15.90;97.50;;;;;;7381926;19;20038;-76
2023/11/01 12:07:18;;;;;;;6.35;1.50;;;15.80;97.80;;;;;;7404582;19;20022;-77
2023/11/01 12:09:50;;;;;;;7.85;1.90;;;16.00;97.50;;;;;;7383546;19;20007;-76
2023/11/01 12:12:19;;;;;;;7.25;1.20;;;16.20;97.50;;;;;;7382920;19;20010;-75
2023/11/01 12:14:47;;;;;;;5.53;1.45;;;16.00;97.10;;;;;;7383624;19;20003;-77
2023/11/01 12:17:17;;;;;;;5.93;2.08;;;15.80;97.50;;;;;;7383831;19;20003;-76
2023/11/01 12:19:48;;;;;;;11.73;1.80;;;16.00;97.60;;;;;;7386896;19;20017;-77
2023/11/01 12:22:20;;;;;;;6.20;1.65;;;16.10;97.40;;;;;;7403267;19;20062;-76
2023/11/01 12:24:51;;;;;;;11.90;2.15;;;16.20;97.60;;;;;;7406673;19;20031;-76
2023/11/01 12:27:32;;;;;;;12.07;2.70;;;16.20;97.30;;;;;;7384769;19;20003;-78
2023/11/01 12:30:04;;;;;;;8.02;2.22;;;16.40;97.20;;;;;;7383449;19;20010;-76
2023/11/01 12:32:33;;;;;;;14.23;2.38;;;16.40;97.10;;;;;;7382841;19;20102;-76
2023/11/01 12:35:11;;;;;;;14.85;2.47;;;16.40;97.00;;;;;;7383919;19;20061;-75
2023/11/01 12:37:41;;;;;;;6.35;1.67;;;16.50;96.70;;;;;;7384686;19;20037;-76
2023/11/01 12:40:12;;;;;;;12.30;1.98;;;16.50;96.90;;;;;;7404768;19;20007;-76
2023/11/01 12:42:43;;;;;;;6.72;2.00;;;16.60;96.80;;;;;;7384764;19;20002;-76
2023/11/01 12:45:15;;;;;;;6.93;2.08;;;16.60;96.80;;;;;;7381536;19;20013;-75
2023/11/01 12:47:47;;;;;;;;;;;16.70;96.60;;;;;;7382762;19;20006;-75
2023/11/01 12:50:20;;;;;;;8.07;2.05;;;16.80;96.50;;;;;;7382411;19;19915;-77
2023/11/01 12:52:49;;;;;;;14.65;2.40;;;16.70;96.50;;;;;;7382239;19;20066;-77
2023/11/01 12:55:18;;;;;;;13.30;2.30;;;16.60;96.70;;;;;;7392969;19;20067;-78
2023/11/01 12:57:49;;;;;;;8.02;2.35;;;16.50;97.10;;;;;;7404888;19;20015;-77
2023/11/01 13:00:19;;;;;;;13.65;1.83;;;16.40;97.30;;;;;;7385112;19;20079;-76
2023/11/01 13:02:49;;;;;;;7.55;1.95;;;16.30;97.00;;;;;;7389440;19;20397;-78
2023/11/01 13:05:21;;;;;;;17.00;2.50;;;16.30;97.10;;;;;;7387567;19;20013;-78
2023/11/01 13:07:51;;;;;;;21.25;3.13;;;16.30;97.10;;;;;;7387423;19;20054;-79
2023/11/01 13:10:19;;;;;;;10.75;2.50;;;16.20;97.20;;;;;;7388783;19;20076;-78
2023/11/01 13:12:48;;;;;;;12.18;2.00;;;16.40;97.20;;;;;;7409661;19;20031;-79
2023/11/01 13:15:20;;;;;;;9.18;2.17;;;16.60;96.70;;;;;;7385400;19;20006;-79
2023/11/01 13:17:49;;;;;;;9.00;2.38;;;16.70;96.60;;;;;;7384309;19;20083;-80
2023/11/01 13:20:21;;;;;;;9.55;2.50;;;16.90;96.30;;;;;;7387768;19;20051;-77
2023/11/01 13:22:49;;;;;;;;;;;16.70;96.10;;;;;;7385170;19;20011;-78
2023/11/01 13:25:18;;;;;;;14.10;2.50;;;16.40;96.60;;;;;;7390419;19;19928;-79
2023/11/01 13:27:47;;;;;;;13.07;1.90;;;16.60;96.40;;;;;;7405358;19;20031;-79
2023/11/01 13:30:16;;;;;;;12.98;2.45;;;16.50;96.00;;;;;;7383712;19;20003;-80
2023/11/01 13:32:46;;;;;;;14.70;2.75;;;16.50;96.40;;;;;;7388995;19;20251;-79
2023/11/01 13:35:14;;;;;;;17.35;2.50;;;16.60;96.50;;;;;;7386768;19;20028;-80
2023/11/01 13:37:46;;;;;;;15.32;2.30;;;16.60;96.30;;;;;;7386109;19;20006;-79
2023/11/01 13:40:14;;;;;;;14.52;2.58;;;16.40;96.50;;;;;;7404146;19;20260;-79
2023/11/01 13:42:43;;;;;;;18.33;2.60;;;16.50;96.50;;;;;;7387726;19;20035;-79
2023/11/01 13:45:12;;;;;;;10.50;2.47;;;16.70;96.30;;;;;;7382045;19;20020;-79